sensor_id;sensor_type;location;lat;lon;timestamp;P1;durP1;ratioP1;P2;durP2;ratioP2
61572;SDS011;47465;43.094;12.434;2022-08-01T00:01:59;4.97;;;3.30;;
61572;SDS011;47465;43.094;12.434;2022-08-01T00:04:24;3.78;;;3.10;;
61572;SDS011;47465;43.094;12.434;2022-08-01T00:06:50;5.68;;;3.40;;
61572;SDS011;47465;43.094;12.434;2022-08-01T00:09:16;5.78;;;2.90;;
61572;SDS011;47465;43.094;12.434;2022-08-01T00:11:42;3.67;;;2.78;;
61572;SDS011;47465;43.094;12.434;2022-08-01T00:14:08;4.07;;;2.80;;
61572;SDS011;47465;43.094;12.434;2022-08-01T00:16:35;4.25;;;3.03;;
61572;SDS011;47465;43.094;12.434;2022-08-01T00:19:02;4.15;;;2.90;;
61572;SDS011;47465;43.094;12.434;2022-08-01T00:21:28;4.15;;;2.88;;
61572;SDS011;47465;43.094;12.434;2022-08-01T00:23:54;4.05;;;3.10;;
61572;SDS011;47465;43.094;12.434;2022-08-01T00:26:20;4.18;;;2.90;;
61572;SDS011;47465;43.094;12.434;2022-08-01T00:28:46;4.07;;;3.00;;
61572;SDS011;47465;43.094;12.434;2022-08-01T00:31:12;5.30;;;2.95;;
61572;SDS011;47465;43.094;12.434;2022-08-01T00:33:37;4.45;;;3.05;;
61572;SDS011;47465;43.094;12.434;2022-08-01T00:36:05;3.90;;;2.90;;
61572;SDS011;47465;43.094;12.434;2022-08-01T00:38:31;4.07;;;3.10;;
61572;SDS011;47465;43.094;12.434;2022-08-01T00:40:56;4.07;;;3.05;;
61572;SDS011;47465;43.094;12.434;2022-08-01T00:43:22;5.35;;;3.30;;
61572;SDS011;47465;43.094;12.434;2022-08-01T00:45:48;4.63;;;3.03;;
61572;SDS011;47465;43.094;12.434;2022-08-01T00:48:14;6.43;;;3.03;;
61572;SDS011;47465;43.094;12.434;2022-08-01T00:50:40;3.75;;;2.80;;
61572;SDS011;47465;43.094;12.434;2022-08-01T00:53:08;4.38;;;3.10;;
61572;SDS011;47465;43.094;12.434;2022-08-01T00:55:34;4.13;;;3.00;;
61572;SDS011;47465;43.094;12.434;2022-08-01T00:57:59;3.72;;;3.05;;
61572;SDS011;47465;43.094;12.434;2022-08-01T01:00:25;4.05;;;2.90;;
61572;SDS011;47465;43.094;12.434;2022-08-01T01:02:51;4.72;;;3.13;;
61572;SDS011;47465;43.094;12.434;2022-08-01T01:05:17;4.35;;;3.00;;
61572;SDS011;47465;43.094;12.434;2022-08-01T01:07:44;4.75;;;3.28;;
61572;SDS011;47465;43.094;12.434;2022-08-01T01:10:17;4.78;;;3.10;;
61572;SDS011;47465;43.094;12.434;2022-08-01T01:12:49;5.32;;;3.42;;
61572;SDS011;47465;43.094;12.434;2022-08-01T01:15:20;4.68;;;3.30;;
61572;SDS011;47465;43.094;12.434;2022-08-01T01:17:52;4.82;;;3.70;;
61572;SDS011;47465;43.094;12.434;2022-08-01T01:20:24;4.60;;;3.45;;
61572;SDS011;47465;43.094;12.434;2022-08-01T01:22:59;4.50;;;3.55;;
61572;SDS011;47465;43.094;12.434;2022-08-01T01:25:43;4.20;;;3.10;;
61572;SDS011;47465;43.094;12.434;2022-08-01T01:28:21;4.40;;;3.30;;
61572;SDS011;47465;43.094;12.434;2022-08-01T01:30:55;5.20;;;3.40;;
61572;SDS011;47465;43.094;12.434;2022-08-01T01:33:23;5.13;;;3.25;;
61572;SDS011;47465;43.094;12.434;2022-08-01T01:35:58;4.60;;;3.30;;
61572;SDS011;47465;43.094;12.434;2022-08-01T01:38:28;4.25;;;2.90;;
61572;SDS011;47465;43.094;12.434;2022-08-01T01:40:57;3.92;;;3.00;;
61572;SDS011;47465;43.094;12.434;2022-08-01T01:43:24;7.82;;;3.10;;
61572;SDS011;47465;43.094;12.434;2022-08-01T01:45:54;5.60;;;3.08;;
61572;SDS011;47465;43.094;12.434;2022-08-01T01:48:21;3.63;;;2.97;;
61572;SDS011;47465;43.094;12.434;2022-08-01T01:50:48;4.05;;;3.20;;
61572;SDS011;47465;43.094;12.434;2022-08-01T01:53:17;4.78;;;3.00;;
61572;SDS011;47465;43.094;12.434;2022-08-01T01:58:13;3.55;;;2.90;;
61572;SDS011;47465;43.094;12.434;2022-08-01T02:00:41;5.13;;;2.72;;
61572;SDS011;47465;43.094;12.434;2022-08-01T02:03:10;3.95;;;2.53;;
61572;SDS011;47465;43.094;12.434;2022-08-01T02:08:03;4.90;;;2.78;;
61572;SDS011;47465;43.094;12.434;2022-08-01T02:10:31;3.50;;;2.72;;
61572;SDS011;47465;43.094;12.434;2022-08-01T02:12:59;3.45;;;2.72;;
61572;SDS011;47465;43.094;12.434;2022-08-01T02:15:28;4.22;;;2.50;;
61572;SDS011;47465;43.094;12.434;2022-08-01T02:17:56;3.72;;;2.60;;
61572;SDS011;47465;43.094;12.434;2022-08-01T02:20:26;4.63;;;3.50;;
61572;SDS011;47465;43.094;12.434;2022-08-01T02:22:55;3.88;;;3.03;;
61572;SDS011;47465;43.094;12.434;2022-08-01T02:25:27;4.18;;;3.05;;
61572;SDS011;47465;43.094;12.434;2022-08-01T02:27:59;5.28;;;3.20;;
61572;SDS011;47465;43.094;12.434;2022-08-01T02:30:30;4.40;;;3.25;;
61572;SDS011;47465;43.094;12.434;2022-08-01T02:32:59;3.60;;;3.03;;
61572;SDS011;47465;43.094;12.434;2022-08-01T02:35:32;4.00;;;2.97;;
61572;SDS011;47465;43.094;12.434;2022-08-01T02:38:01;4.90;;;3.20;;
61572;SDS011;47465;43.094;12.434;2022-08-01T02:40:29;4.30;;;2.80;;
61572;SDS011;47465;43.094;12.434;2022-08-01T02:42:59;3.80;;;3.00;;
61572;SDS011;47465;43.094;12.434;2022-08-01T02:47:54;3.80;;;2.88;;
61572;SDS011;47465;43.094;12.434;2022-08-01T02:50:24;5.03;;;3.20;;
61572;SDS011;47465;43.094;12.434;2022-08-01T02:52:53;4.80;;;2.83;;
61572;SDS011;47465;43.094;12.434;2022-08-01T02:55:22;4.30;;;3.10;;
61572;SDS011;47465;43.094;12.434;2022-08-01T02:57:48;3.85;;;2.92;;
61572;SDS011;47465;43.094;12.434;2022-08-01T03:00:17;3.47;;;2.70;;
61572;SDS011;47465;43.094;12.434;2022-08-01T03:02:44;4.05;;;3.20;;
61572;SDS011;47465;43.094;12.434;2022-08-01T03:05:13;4.68;;;3.10;;
61572;SDS011;47465;43.094;12.434;2022-08-01T03:07:40;4.63;;;3.05;;
61572;SDS011;47465;43.094;12.434;2022-08-01T03:10:08;4.50;;;3.25;;
61572;SDS011;47465;43.094;12.434;2022-08-01T03:12:35;3.97;;;3.20;;
61572;SDS011;47465;43.094;12.434;2022-08-01T03:15:03;4.88;;;3.20;;
61572;SDS011;47465;43.094;12.434;2022-08-01T03:17:32;4.53;;;3.10;;
61572;SDS011;47465;43.094;12.434;2022-08-01T03:22:27;4.82;;;3.50;;
61572;SDS011;47465;43.094;12.434;2022-08-01T03:24:59;4.30;;;3.42;;
61572;SDS011;47465;43.094;12.434;2022-08-01T03:27:28;4.38;;;3.10;;
61572;SDS011;47465;43.094;12.434;2022-08-01T03:29:56;3.97;;;3.13;;
61572;SDS011;47465;43.094;12.434;2022-08-01T03:32:23;4.18;;;3.15;;
61572;SDS011;47465;43.094;12.434;2022-08-01T03:34:52;3.58;;;3.03;;
61572;SDS011;47465;43.094;12.434;2022-08-01T03:37:20;5.47;;;3.30;;
61572;SDS011;47465;43.094;12.434;2022-08-01T03:39:52;4.28;;;2.97;;
61572;SDS011;47465;43.094;12.434;2022-08-01T03:42:24;5.30;;;3.30;;
61572;SDS011;47465;43.094;12.434;2022-08-01T03:44:58;4.93;;;3.63;;
61572;SDS011;47465;43.094;12.434;2022-08-01T03:47:29;4.30;;;3.40;;
61572;SDS011;47465;43.094;12.434;2022-08-01T03:49:57;4.50;;;3.60;;
61572;SDS011;47465;43.094;12.434;2022-08-01T03:52:24;4.38;;;3.42;;
61572;SDS011;47465;43.094;12.434;2022-08-01T03:54:53;4.65;;;3.17;;
61572;SDS011;47465;43.094;12.434;2022-08-01T03:57:22;4.10;;;3.13;;
61572;SDS011;47465;43.094;12.434;2022-08-01T04:02:18;4.07;;;3.15;;
61572;SDS011;47465;43.094;12.434;2022-08-01T04:04:44;4.80;;;3.40;;
61572;SDS011;47465;43.094;12.434;2022-08-01T04:07:20;5.93;;;3.08;;
61572;SDS011;47465;43.094;12.434;2022-08-01T04:09:47;3.92;;;3.10;;
61572;SDS011;47465;43.094;12.434;2022-08-01T04:12:13;4.65;;;3.00;;
61572;SDS011;47465;43.094;12.434;2022-08-01T04:14:39;4.13;;;3.00;;
61572;SDS011;47465;43.094;12.434;2022-08-01T04:17:06;4.68;;;2.95;;
61572;SDS011;47465;43.094;12.434;2022-08-01T04:19:32;4.38;;;3.25;;
61572;SDS011;47465;43.094;12.434;2022-08-01T04:21:58;4.28;;;3.20;;
61572;SDS011;47465;43.094;12.434;2022-08-01T04:24:25;4.68;;;3.30;;
61572;SDS011;47465;43.094;12.434;2022-08-01T04:26:55;4.82;;;3.05;;
61572;SDS011;47465;43.094;12.434;2022-08-01T04:29:23;4.13;;;3.33;;
61572;SDS011;47465;43.094;12.434;2022-08-01T04:31:50;3.92;;;3.00;;
61572;SDS011;47465;43.094;12.434;2022-08-01T04:34:21;4.22;;;3.10;;
61572;SDS011;47465;43.094;12.434;2022-08-01T04:36:51;4.03;;;3.22;;
61572;SDS011;47465;43.094;12.434;2022-08-01T04:39:19;8.30;;;3.70;;
61572;SDS011;47465;43.094;12.434;2022-08-01T04:41:48;4.60;;;3.10;;
61572;SDS011;47465;43.094;12.434;2022-08-01T04:44:16;4.60;;;3.47;;
61572;SDS011;47465;43.094;12.434;2022-08-01T04:46:42;4.65;;;3.15;;
61572;SDS011;47465;43.094;12.434;2022-08-01T04:49:08;4.57;;;3.20;;
61572;SDS011;47465;43.094;12.434;2022-08-01T04:51:38;5.00;;;3.70;;
61572;SDS011;47465;43.094;12.434;2022-08-01T04:54:16;5.35;;;3.20;;
61572;SDS011;47465;43.094;12.434;2022-08-01T04:56:41;4.50;;;3.30;;
61572;SDS011;47465;43.094;12.434;2022-08-01T04:59:07;5.20;;;3.60;;
61572;SDS011;47465;43.094;12.434;2022-08-01T05:02:08;5.97;;;3.28;;
61572;SDS011;47465;43.094;12.434;2022-08-01T05:04:36;5.53;;;3.42;;
61572;SDS011;47465;43.094;12.434;2022-08-01T05:07:03;4.40;;;3.42;;
61572;SDS011;47465;43.094;12.434;2022-08-01T05:09:30;4.97;;;3.20;;
61572;SDS011;47465;43.094;12.434;2022-08-01T05:11:56;5.78;;;3.65;;
61572;SDS011;47465;43.094;12.434;2022-08-01T05:14:23;5.53;;;3.78;;
61572;SDS011;47465;43.094;12.434;2022-08-01T05:16:49;4.97;;;3.65;;
61572;SDS011;47465;43.094;12.434;2022-08-01T05:19:16;7.38;;;3.60;;
61572;SDS011;47465;43.094;12.434;2022-08-01T05:21:42;7.05;;;3.85;;
61572;SDS011;47465;43.094;12.434;2022-08-01T05:24:08;5.72;;;3.75;;
61572;SDS011;47465;43.094;12.434;2022-08-01T05:26:34;5.43;;;3.30;;
61572;SDS011;47465;43.094;12.434;2022-08-01T05:29:00;7.20;;;3.72;;
61572;SDS011;47465;43.094;12.434;2022-08-01T05:31:26;5.50;;;3.42;;
61572;SDS011;47465;43.094;12.434;2022-08-01T05:33:52;6.00;;;3.58;;
61572;SDS011;47465;43.094;12.434;2022-08-01T05:36:20;6.00;;;3.60;;
61572;SDS011;47465;43.094;12.434;2022-08-01T05:38:46;5.38;;;3.55;;
61572;SDS011;47465;43.094;12.434;2022-08-01T05:41:11;5.90;;;3.63;;
61572;SDS011;47465;43.094;12.434;2022-08-01T05:43:37;7.85;;;3.50;;
61572;SDS011;47465;43.094;12.434;2022-08-01T05:46:03;8.50;;;3.75;;
61572;SDS011;47465;43.094;12.434;2022-08-01T05:48:29;5.88;;;3.65;;
61572;SDS011;47465;43.094;12.434;2022-08-01T05:50:55;9.35;;;3.85;;
61572;SDS011;47465;43.094;12.434;2022-08-01T05:53:22;6.63;;;3.60;;
61572;SDS011;47465;43.094;12.434;2022-08-01T05:55:48;9.10;;;3.58;;
61572;SDS011;47465;43.094;12.434;2022-08-01T05:58:14;5.80;;;3.70;;
61572;SDS011;47465;43.094;12.434;2022-08-01T06:00:40;5.10;;;3.70;;
61572;SDS011;47465;43.094;12.434;2022-08-01T06:03:06;7.22;;;3.60;;
61572;SDS011;47465;43.094;12.434;2022-08-01T06:05:32;6.43;;;3.58;;
61572;SDS011;47465;43.094;12.434;2022-08-01T06:07:57;6.15;;;3.78;;
61572;SDS011;47465;43.094;12.434;2022-08-01T06:10:25;4.20;;;3.38;;
61572;SDS011;47465;43.094;12.434;2022-08-01T06:12:51;8.60;;;3.58;;
61572;SDS011;47465;43.094;12.434;2022-08-01T06:15:17;5.65;;;3.25;;
61572;SDS011;47465;43.094;12.434;2022-08-01T06:17:42;4.15;;;3.22;;
61572;SDS011;47465;43.094;12.434;2022-08-01T06:20:09;6.18;;;3.13;;
61572;SDS011;47465;43.094;12.434;2022-08-01T06:22:35;6.25;;;3.38;;
61572;SDS011;47465;43.094;12.434;2022-08-01T06:25:01;6.40;;;3.28;;
61572;SDS011;47465;43.094;12.434;2022-08-01T06:27:28;4.15;;;2.97;;
61572;SDS011;47465;43.094;12.434;2022-08-01T06:29:54;5.70;;;3.28;;
61572;SDS011;47465;43.094;12.434;2022-08-01T06:32:21;5.75;;;3.58;;
61572;SDS011;47465;43.094;12.434;2022-08-01T06:34:48;6.75;;;3.50;;
61572;SDS011;47465;43.094;12.434;2022-08-01T06:37:14;6.15;;;3.00;;
61572;SDS011;47465;43.094;12.434;2022-08-01T06:39:41;8.32;;;3.45;;
61572;SDS011;47465;43.094;12.434;2022-08-01T06:42:07;5.88;;;3.60;;
61572;SDS011;47465;43.094;12.434;2022-08-01T06:44:36;3.97;;;3.10;;
61572;SDS011;47465;43.094;12.434;2022-08-01T06:47:01;10.45;;;3.58;;
61572;SDS011;47465;43.094;12.434;2022-08-01T06:49:27;4.57;;;3.10;;
61572;SDS011;47465;43.094;12.434;2022-08-01T06:51:53;5.03;;;3.35;;
61572;SDS011;47465;43.094;12.434;2022-08-01T06:54:19;4.10;;;3.20;;
61572;SDS011;47465;43.094;12.434;2022-08-01T06:56:46;5.95;;;3.50;;
61572;SDS011;47465;43.094;12.434;2022-08-01T06:59:12;5.82;;;3.30;;
61572;SDS011;47465;43.094;12.434;2022-08-01T07:01:39;4.28;;;3.30;;
61572;SDS011;47465;43.094;12.434;2022-08-01T07:04:06;4.87;;;2.97;;
61572;SDS011;47465;43.094;12.434;2022-08-01T07:06:32;4.03;;;3.20;;
61572;SDS011;47465;43.094;12.434;2022-08-01T07:08:58;5.68;;;3.13;;
61572;SDS011;47465;43.094;12.434;2022-08-01T07:11:27;4.80;;;3.38;;
61572;SDS011;47465;43.094;12.434;2022-08-01T07:13:53;6.32;;;3.15;;
61572;SDS011;47465;43.094;12.434;2022-08-01T07:16:19;4.43;;;2.90;;
61572;SDS011;47465;43.094;12.434;2022-08-01T07:18:46;5.68;;;3.10;;
61572;SDS011;47465;43.094;12.434;2022-08-01T07:21:12;4.30;;;3.00;;
61572;SDS011;47465;43.094;12.434;2022-08-01T07:23:38;4.78;;;3.08;;
61572;SDS011;47465;43.094;12.434;2022-08-01T07:26:04;6.63;;;3.10;;
61572;SDS011;47465;43.094;12.434;2022-08-01T07:28:31;4.13;;;3.00;;
61572;SDS011;47465;43.094;12.434;2022-08-01T07:30:57;7.15;;;3.17;;
61572;SDS011;47465;43.094;12.434;2022-08-01T07:33:23;5.40;;;2.90;;
61572;SDS011;47465;43.094;12.434;2022-08-01T07:35:50;4.63;;;2.80;;
61572;SDS011;47465;43.094;12.434;2022-08-01T07:38:16;7.13;;;3.00;;
61572;SDS011;47465;43.094;12.434;2022-08-01T07:40:42;4.28;;;3.00;;
61572;SDS011;47465;43.094;12.434;2022-08-01T07:43:09;8.13;;;3.15;;
61572;SDS011;47465;43.094;12.434;2022-08-01T07:45:35;7.72;;;3.20;;
61572;SDS011;47465;43.094;12.434;2022-08-01T07:48:02;3.55;;;2.70;;
61572;SDS011;47465;43.094;12.434;2022-08-01T07:50:28;5.70;;;2.90;;
61572;SDS011;47465;43.094;12.434;2022-08-01T07:52:56;4.50;;;3.00;;
61572;SDS011;47465;43.094;12.434;2022-08-01T07:55:22;5.63;;;2.58;;
61572;SDS011;47465;43.094;12.434;2022-08-01T07:57:48;4.35;;;2.83;;
61572;SDS011;47465;43.094;12.434;2022-08-01T08:00:14;4.43;;;2.88;;
61572;SDS011;47465;43.094;12.434;2022-08-01T08:02:40;4.55;;;2.67;;
61572;SDS011;47465;43.094;12.434;2022-08-01T08:05:07;4.07;;;3.03;;
61572;SDS011;47465;43.094;12.434;2022-08-01T08:07:33;5.45;;;2.60;;
61572;SDS011;47465;43.094;12.434;2022-08-01T08:10:01;3.90;;;2.90;;
61572;SDS011;47465;43.094;12.434;2022-08-01T08:12:27;4.88;;;2.88;;
61572;SDS011;47465;43.094;12.434;2022-08-01T08:14:53;5.40;;;2.80;;
61572;SDS011;47465;43.094;12.434;2022-08-01T08:17:19;4.85;;;2.97;;
61572;SDS011;47465;43.094;12.434;2022-08-01T08:19:45;4.18;;;2.70;;
61572;SDS011;47465;43.094;12.434;2022-08-01T08:22:10;5.28;;;2.80;;
61572;SDS011;47465;43.094;12.434;2022-08-01T08:24:37;4.97;;;2.88;;
61572;SDS011;47465;43.094;12.434;2022-08-01T08:27:07;3.30;;;2.63;;
61572;SDS011;47465;43.094;12.434;2022-08-01T08:29:41;4.35;;;2.65;;
61572;SDS011;47465;43.094;12.434;2022-08-01T08:32:07;4.45;;;2.70;;
61572;SDS011;47465;43.094;12.434;2022-08-01T08:34:33;4.25;;;2.60;;
61572;SDS011;47465;43.094;12.434;2022-08-01T08:36:59;3.50;;;2.45;;
61572;SDS011;47465;43.094;12.434;2022-08-01T08:39:25;4.13;;;2.70;;
61572;SDS011;47465;43.094;12.434;2022-08-01T08:41:51;4.85;;;2.67;;
61572;SDS011;47465;43.094;12.434;2022-08-01T08:44:19;3.47;;;2.40;;
61572;SDS011;47465;43.094;12.434;2022-08-01T08:46:46;2.72;;;1.90;;
61572;SDS011;47465;43.094;12.434;2022-08-01T08:51:41;3.00;;;2.20;;
61572;SDS011;47465;43.094;12.434;2022-08-01T08:54:10;2.47;;;2.00;;
61572;SDS011;47465;43.094;12.434;2022-08-01T08:56:37;3.75;;;1.92;;
61572;SDS011;47465;43.094;12.434;2022-08-01T08:59:11;3.85;;;2.40;;
61572;SDS011;47465;43.094;12.434;2022-08-01T09:01:40;4.55;;;2.38;;
61572;SDS011;47465;43.094;12.434;2022-08-01T09:04:07;2.88;;;2.20;;
61572;SDS011;47465;43.094;12.434;2022-08-01T09:06:33;3.83;;;2.15;;
61572;SDS011;47465;43.094;12.434;2022-08-01T09:08:59;3.65;;;1.90;;
61572;SDS011;47465;43.094;12.434;2022-08-01T09:11:25;2.90;;;2.03;;
61572;SDS011;47465;43.094;12.434;2022-08-01T09:14:04;3.13;;;2.15;;
61572;SDS011;47465;43.094;12.434;2022-08-01T09:16:33;2.72;;;2.00;;
61572;SDS011;47465;43.094;12.434;2022-08-01T09:19:08;2.38;;;1.92;;
61572;SDS011;47465;43.094;12.434;2022-08-01T09:21:36;3.25;;;2.20;;
61572;SDS011;47465;43.094;12.434;2022-08-01T09:24:02;2.75;;;2.28;;
61572;SDS011;47465;43.094;12.434;2022-08-01T09:28:58;2.23;;;1.93;;
61572;SDS011;47465;43.094;12.434;2022-08-01T09:31:27;2.95;;;2.20;;
61572;SDS011;47465;43.094;12.434;2022-08-01T09:33:55;2.78;;;2.20;;
61572;SDS011;47465;43.094;12.434;2022-08-01T09:36:25;4.82;;;2.20;;
61572;SDS011;47465;43.094;12.434;2022-08-01T09:38:53;2.80;;;2.10;;
61572;SDS011;47465;43.094;12.434;2022-08-01T09:41:28;2.97;;;2.03;;
61572;SDS011;47465;43.094;12.434;2022-08-01T09:43:56;5.57;;;2.20;;
61572;SDS011;47465;43.094;12.434;2022-08-01T09:46:22;2.80;;;2.00;;
61572;SDS011;47465;43.094;12.434;2022-08-01T09:48:55;2.90;;;2.38;;
61572;SDS011;47465;43.094;12.434;2022-08-01T09:51:31;4.13;;;2.42;;
61572;SDS011;47465;43.094;12.434;2022-08-01T09:53:58;3.20;;;2.42;;
61572;SDS011;47465;43.094;12.434;2022-08-01T09:56:25;3.15;;;2.35;;
61572;SDS011;47465;43.094;12.434;2022-08-01T09:58:52;5.63;;;2.42;;
61572;SDS011;47465;43.094;12.434;2022-08-01T10:01:20;2.92;;;2.15;;
61572;SDS011;47465;43.094;12.434;2022-08-01T10:03:46;3.50;;;2.20;;
61572;SDS011;47465;43.094;12.434;2022-08-01T10:06:21;3.33;;;2.30;;
61572;SDS011;47465;43.094;12.434;2022-08-01T10:08:48;3.40;;;2.40;;
61572;SDS011;47465;43.094;12.434;2022-08-01T10:11:14;5.57;;;2.30;;
61572;SDS011;47465;43.094;12.434;2022-08-01T10:13:40;3.25;;;2.50;;
61572;SDS011;47465;43.094;12.434;2022-08-01T10:16:07;3.53;;;2.42;;
61572;SDS011;47465;43.094;12.434;2022-08-01T10:18:34;3.60;;;2.33;;
61572;SDS011;47465;43.094;12.434;2022-08-01T10:21:02;4.20;;;2.20;;
61572;SDS011;47465;43.094;12.434;2022-08-01T10:23:30;2.95;;;2.20;;
61572;SDS011;47465;43.094;12.434;2022-08-01T10:26:01;4.03;;;2.30;;
61572;SDS011;47465;43.094;12.434;2022-08-01T10:28:29;5.50;;;2.45;;
61572;SDS011;47465;43.094;12.434;2022-08-01T10:33:23;3.58;;;2.38;;
61572;SDS011;47465;43.094;12.434;2022-08-01T10:35:49;3.30;;;2.33;;
61572;SDS011;47465;43.094;12.434;2022-08-01T10:38:15;3.40;;;2.35;;
61572;SDS011;47465;43.094;12.434;2022-08-01T10:40:42;2.60;;;2.25;;
61572;SDS011;47465;43.094;12.434;2022-08-01T10:43:10;3.47;;;2.50;;
61572;SDS011;47465;43.094;12.434;2022-08-01T10:45:36;3.92;;;2.50;;
61572;SDS011;47465;43.094;12.434;2022-08-01T10:48:03;2.92;;;2.35;;
61572;SDS011;47465;43.094;12.434;2022-08-01T10:50:36;4.95;;;2.20;;
61572;SDS011;47465;43.094;12.434;2022-08-01T10:53:12;3.15;;;2.45;;
61572;SDS011;47465;43.094;12.434;2022-08-01T10:55:45;4.28;;;2.55;;
61572;SDS011;47465;43.094;12.434;2022-08-01T10:58:14;3.00;;;2.30;;
61572;SDS011;47465;43.094;12.434;2022-08-01T11:00:45;3.15;;;2.47;;
61572;SDS011;47465;43.094;12.434;2022-08-01T11:03:11;3.17;;;2.38;;
61572;SDS011;47465;43.094;12.434;2022-08-01T11:05:37;3.20;;;2.40;;
61572;SDS011;47465;43.094;12.434;2022-08-01T11:08:07;3.40;;;2.55;;
61572;SDS011;47465;43.094;12.434;2022-08-01T11:10:37;3.28;;;2.65;;
61572;SDS011;47465;43.094;12.434;2022-08-01T11:13:04;4.70;;;2.90;;
61572;SDS011;47465;43.094;12.434;2022-08-01T11:15:34;3.45;;;2.30;;
61572;SDS011;47465;43.094;12.434;2022-08-01T11:18:01;2.90;;;2.30;;
61572;SDS011;47465;43.094;12.434;2022-08-01T11:28:42;3.13;;;2.42;;
61572;SDS011;47465;43.094;12.434;2022-08-01T11:31:30;2.70;;;2.30;;
61572;SDS011;47465;43.094;12.434;2022-08-01T11:33:57;3.28;;;2.20;;
61572;SDS011;47465;43.094;12.434;2022-08-01T11:36:24;3.10;;;2.50;;
61572;SDS011;47465;43.094;12.434;2022-08-01T11:41:38;3.35;;;2.47;;
61572;SDS011;47465;43.094;12.434;2022-08-01T11:44:05;2.63;;;2.20;;
61572;SDS011;47465;43.094;12.434;2022-08-01T11:49:26;2.80;;;2.20;;
61572;SDS011;47465;43.094;12.434;2022-08-01T11:51:57;3.15;;;2.50;;
61572;SDS011;47465;43.094;12.434;2022-08-01T11:54:27;4.85;;;2.38;;
61572;SDS011;47465;43.094;12.434;2022-08-01T11:56:57;3.73;;;2.40;;
61572;SDS011;47465;43.094;12.434;2022-08-01T11:59:25;3.15;;;2.17;;
61572;SDS011;47465;43.094;12.434;2022-08-01T12:01:52;3.20;;;2.35;;
61572;SDS011;47465;43.094;12.434;2022-08-01T12:04:20;3.10;;;2.50;;
61572;SDS011;47465;43.094;12.434;2022-08-01T12:06:45;2.90;;;2.30;;
61572;SDS011;47465;43.094;12.434;2022-08-01T12:09:15;3.72;;;2.25;;
61572;SDS011;47465;43.094;12.434;2022-08-01T12:11:45;3.80;;;2.38;;
61572;SDS011;47465;43.094;12.434;2022-08-01T12:14:15;4.43;;;2.47;;
61572;SDS011;47465;43.094;12.434;2022-08-01T12:16:47;2.30;;;2.10;;
61572;SDS011;47465;43.094;12.434;2022-08-01T12:19:17;2.63;;;2.28;;
61572;SDS011;47465;43.094;12.434;2022-08-01T12:24:37;3.35;;;1.90;;
61572;SDS011;47465;43.094;12.434;2022-08-01T12:27:05;3.80;;;2.20;;
61572;SDS011;47465;43.094;12.434;2022-08-01T12:29:35;3.40;;;2.00;;
61572;SDS011;47465;43.094;12.434;2022-08-01T12:32:03;2.40;;;2.08;;
61572;SDS011;47465;43.094;12.434;2022-08-01T12:34:31;5.00;;;2.22;;
61572;SDS011;47465;43.094;12.434;2022-08-01T12:37:00;2.35;;;2.03;;
61572;SDS011;47465;43.094;12.434;2022-08-01T12:39:31;2.92;;;2.13;;
61572;SDS011;47465;43.094;12.434;2022-08-01T12:41:58;3.25;;;2.30;;
61572;SDS011;47465;43.094;12.434;2022-08-01T12:44:24;3.40;;;2.28;;
61572;SDS011;47465;43.094;12.434;2022-08-01T12:46:51;3.00;;;2.38;;
61572;SDS011;47465;43.094;12.434;2022-08-01T12:49:17;3.72;;;2.40;;
61572;SDS011;47465;43.094;12.434;2022-08-01T12:51:45;2.78;;;2.47;;
61572;SDS011;47465;43.094;12.434;2022-08-01T12:54:11;3.25;;;2.20;;
61572;SDS011;47465;43.094;12.434;2022-08-01T12:56:37;2.97;;;2.22;;
61572;SDS011;47465;43.094;12.434;2022-08-01T13:01:50;2.90;;;2.07;;
61572;SDS011;47465;43.094;12.434;2022-08-01T13:04:16;3.33;;;2.20;;
61572;SDS011;47465;43.094;12.434;2022-08-01T13:06:42;2.50;;;2.10;;
61572;SDS011;47465;43.094;12.434;2022-08-01T13:09:10;3.50;;;2.47;;
61572;SDS011;47465;43.094;12.434;2022-08-01T13:11:38;3.13;;;2.20;;
61572;SDS011;47465;43.094;12.434;2022-08-01T13:14:04;2.78;;;2.33;;
61572;SDS011;47465;43.094;12.434;2022-08-01T13:16:30;3.05;;;2.15;;
61572;SDS011;47465;43.094;12.434;2022-08-01T13:18:56;2.88;;;2.17;;
61572;SDS011;47465;43.094;12.434;2022-08-01T13:21:23;3.00;;;2.17;;
61572;SDS011;47465;43.094;12.434;2022-08-01T13:24:00;4.15;;;2.50;;
61572;SDS011;47465;43.094;12.434;2022-08-01T13:29:05;3.97;;;2.35;;
61572;SDS011;47465;43.094;12.434;2022-08-01T13:31:32;3.53;;;2.30;;
61572;SDS011;47465;43.094;12.434;2022-08-01T13:33:59;3.38;;;2.17;;
61572;SDS011;47465;43.094;12.434;2022-08-01T13:36:25;2.95;;;2.22;;
61572;SDS011;47465;43.094;12.434;2022-08-01T13:38:53;2.40;;;2.20;;
61572;SDS011;47465;43.094;12.434;2022-08-01T13:41:54;2.88;;;2.15;;
61572;SDS011;47465;43.094;12.434;2022-08-01T13:44:20;2.80;;;2.10;;
61572;SDS011;47465;43.094;12.434;2022-08-01T13:46:46;3.15;;;2.30;;
61572;SDS011;47465;43.094;12.434;2022-08-01T13:49:13;3.90;;;2.25;;
61572;SDS011;47465;43.094;12.434;2022-08-01T13:51:39;3.25;;;2.47;;
61572;SDS011;47465;43.094;12.434;2022-08-01T13:54:06;2.70;;;2.30;;
61572;SDS011;47465;43.094;12.434;2022-08-01T13:56:32;6.20;;;2.63;;
61572;SDS011;47465;43.094;12.434;2022-08-01T13:59:00;3.95;;;2.63;;
61572;SDS011;47465;43.094;12.434;2022-08-01T14:01:26;4.10;;;2.60;;
61572;SDS011;47465;43.094;12.434;2022-08-01T14:03:52;3.03;;;2.20;;
61572;SDS011;47465;43.094;12.434;2022-08-01T14:06:18;2.78;;;2.40;;
61572;SDS011;47465;43.094;12.434;2022-08-01T14:08:47;2.92;;;2.28;;
61572;SDS011;47465;43.094;12.434;2022-08-01T14:11:13;3.67;;;2.40;;
61572;SDS011;47465;43.094;12.434;2022-08-01T14:13:39;3.50;;;2.30;;
61572;SDS011;47465;43.094;12.434;2022-08-01T14:16:07;3.53;;;2.30;;
61572;SDS011;47465;43.094;12.434;2022-08-01T14:18:33;4.43;;;2.30;;
61572;SDS011;47465;43.094;12.434;2022-08-01T14:20:59;3.15;;;2.20;;
61572;SDS011;47465;43.094;12.434;2022-08-01T14:23:25;2.60;;;2.30;;
61572;SDS011;47465;43.094;12.434;2022-08-01T14:25:51;2.88;;;2.40;;
61572;SDS011;47465;43.094;12.434;2022-08-01T14:28:17;2.60;;;2.25;;
61572;SDS011;47465;43.094;12.434;2022-08-01T14:30:43;4.22;;;2.20;;
61572;SDS011;47465;43.094;12.434;2022-08-01T14:33:11;3.38;;;2.47;;
61572;SDS011;47465;43.094;12.434;2022-08-01T14:35:37;4.70;;;2.22;;
61572;SDS011;47465;43.094;12.434;2022-08-01T14:38:03;2.90;;;2.20;;
61572;SDS011;47465;43.094;12.434;2022-08-01T14:40:29;2.83;;;2.30;;
61572;SDS011;47465;43.094;12.434;2022-08-01T14:42:55;3.63;;;2.38;;
61572;SDS011;47465;43.094;12.434;2022-08-01T14:45:21;2.75;;;2.33;;
61572;SDS011;47465;43.094;12.434;2022-08-01T14:47:47;3.60;;;2.35;;
61572;SDS011;47465;43.094;12.434;2022-08-01T14:50:15;3.80;;;2.40;;
61572;SDS011;47465;43.094;12.434;2022-08-01T14:52:42;3.85;;;2.28;;
61572;SDS011;47465;43.094;12.434;2022-08-01T14:55:09;3.15;;;2.35;;
61572;SDS011;47465;43.094;12.434;2022-08-01T14:57:37;4.13;;;2.33;;
61572;SDS011;47465;43.094;12.434;2022-08-01T15:00:05;3.00;;;2.20;;
61572;SDS011;47465;43.094;12.434;2022-08-01T15:02:35;2.85;;;2.08;;
61572;SDS011;47465;43.094;12.434;2022-08-01T15:05:01;4.15;;;2.20;;
61572;SDS011;47465;43.094;12.434;2022-08-01T15:07:29;4.15;;;2.45;;
61572;SDS011;47465;43.094;12.434;2022-08-01T15:09:55;2.85;;;2.30;;
61572;SDS011;47465;43.094;12.434;2022-08-01T15:12:21;2.63;;;2.20;;
61572;SDS011;47465;43.094;12.434;2022-08-01T15:14:47;3.00;;;2.30;;
61572;SDS011;47465;43.094;12.434;2022-08-01T15:17:13;3.55;;;2.17;;
61572;SDS011;47465;43.094;12.434;2022-08-01T15:19:39;2.95;;;2.33;;